sensor_id;sensor_type;location;lat;lon;timestamp;temperature;humidity
76203;DHT22;64985;46.364;17.008;2024-01-30T00:02:51;-3.40;99.90
76203;DHT22;64985;46.364;17.008;2024-01-30T00:05:54;-3.40;99.90
76203;DHT22;64985;46.364;17.008;2024-01-30T00:08:59;-3.40;99.90
76203;DHT22;64985;46.364;17.008;2024-01-30T00:12:02;-3.40;99.90
76203;DHT22;64985;46.364;17.008;2024-01-30T00:15:04;-3.30;99.90
76203;DHT22;64985;46.364;17.008;2024-01-30T00:18:06;-3.30;99.90
76203;DHT22;64985;46.364;17.008;2024-01-30T00:21:09;-3.30;99.90
76203;DHT22;64985;46.364;17.008;2024-01-30T00:24:11;-3.30;99.90
76203;DHT22;64985;46.364;17.008;2024-01-30T00:27:13;-3.20;99.90
76203;DHT22;64985;46.364;17.008;2024-01-30T00:30:16;-3.10;99.90
76203;DHT22;64985;46.364;17.008;2024-01-30T00:33:18;-2.90;99.90
76203;DHT22;64985;46.364;17.008;2024-01-30T00:36:21;-3.00;99.90
76203;DHT22;64985;46.364;17.008;2024-01-30T00:39:23;-3.10;99.90
76203;DHT22;64985;46.364;17.008;2024-01-30T00:42:25;-3.10;99.90
76203;DHT22;64985;46.364;17.008;2024-01-30T00:45:28;-3.30;99.90
76203;DHT22;64985;46.364;17.008;2024-01-30T00:48:30;-3.40;99.90
76203;DHT22;64985;46.364;17.008;2024-01-30T00:51:33;-3.40;99.90
76203;DHT22;64985;46.364;17.008;2024-01-30T00:54:35;-3.40;99.90
76203;DHT22;64985;46.364;17.008;2024-01-30T00:57:37;-3.50;99.90
76203;DHT22;64985;46.364;17.008;2024-01-30T01:00:40;-3.60;99.90
76203;DHT22;64985;46.364;17.008;2024-01-30T01:03:42;-3.70;99.90
76203;DHT22;64985;46.364;17.008;2024-01-30T01:06:46;-3.80;99.90
76203;DHT22;64985;46.364;17.008;2024-01-30T01:09:48;-3.80;99.90
76203;DHT22;64985;46.364;17.008;2024-01-30T01:12:50;-3.90;99.90
76203;DHT22;64985;46.364;17.008;2024-01-30T01:15:53;-3.90;99.90
76203;DHT22;64985;46.364;17.008;2024-01-30T01:18:55;-4.00;99.90
76203;DHT22;64985;46.364;17.008;2024-01-30T01:21:58;-4.00;99.90
76203;DHT22;64985;46.364;17.008;2024-01-30T01:25:00;-4.00;99.90
76203;DHT22;64985;46.364;17.008;2024-01-30T01:28:03;-4.00;99.90
76203;DHT22;64985;46.364;17.008;2024-01-30T01:31:05;-4.00;99.90
76203;DHT22;64985;46.364;17.008;2024-01-30T01:34:08;-3.90;99.90
76203;DHT22;64985;46.364;17.008;2024-01-30T01:37:10;-3.90;99.90
76203;DHT22;64985;46.364;17.008;2024-01-30T01:40:13;-3.90;99.90
76203;DHT22;64985;46.364;17.008;2024-01-30T01:43:15;-3.90;99.90
76203;DHT22;64985;46.364;17.008;2024-01-30T01:46:17;-3.90;99.90
76203;DHT22;64985;46.364;17.008;2024-01-30T01:49:22;-4.00;99.90
76203;DHT22;64985;46.364;17.008;2024-01-30T01:52:25;-4.00;99.90
76203;DHT22;64985;46.364;17.008;2024-01-30T01:55:29;-4.00;99.90
76203;DHT22;64985;46.364;17.008;2024-01-30T01:58:31;-3.90;99.90
76203;DHT22;64985;46.364;17.008;2024-01-30T02:01:36;-4.00;99.90
76203;DHT22;64985;46.364;17.008;2024-01-30T02:04:39;-4.00;99.90
76203;DHT22;64985;46.364;17.008;2024-01-30T02:07:42;-4.10;99.90
76203;DHT22;64985;46.364;17.008;2024-01-30T02:10:45;-4.10;99.90
76203;DHT22;64985;46.364;17.008;2024-01-30T02:13:48;-4.10;99.90
76203;DHT22;64985;46.364;17.008;2024-01-30T02:16:51;-4.20;99.90
76203;DHT22;64985;46.364;17.008;2024-01-30T02:19:53;-4.10;99.90
76203;DHT22;64985;46.364;17.008;2024-01-30T02:22:56;-4.10;99.90
76203;DHT22;64985;46.364;17.008;2024-01-30T02:26:01;-4.00;99.90
76203;DHT22;64985;46.364;17.008;2024-01-30T02:29:03;-4.20;99.90
76203;DHT22;64985;46.364;17.008;2024-01-30T02:32:05;-4.30;99.90
76203;DHT22;64985;46.364;17.008;2024-01-30T02:35:08;-4.40;99.90
76203;DHT22;64985;46.364;17.008;2024-01-30T02:38:10;-4.50;99.90
76203;DHT22;64985;46.364;17.008;2024-01-30T02:41:13;-4.50;99.90
76203;DHT22;64985;46.364;17.008;2024-01-30T02:44:15;-4.50;99.90
76203;DHT22;64985;46.364;17.008;2024-01-30T02:47:17;-4.50;99.90
76203;DHT22;64985;46.364;17.008;2024-01-30T02:50:20;-4.50;99.90
76203;DHT22;64985;46.364;17.008;2024-01-30T02:53:22;-4.50;99.90
76203;DHT22;64985;46.364;17.008;2024-01-30T02:56:24;-4.60;99.90
76203;DHT22;64985;46.364;17.008;2024-01-30T02:59:27;-4.60;99.90
76203;DHT22;64985;46.364;17.008;2024-01-30T03:02:29;-4.50;99.90
76203;DHT22;64985;46.364;17.008;2024-01-30T03:05:32;-4.60;99.90
76203;DHT22;64985;46.364;17.008;2024-01-30T03:08:34;-4.60;99.90
76203;DHT22;64985;46.364;17.008;2024-01-30T03:11:37;-4.60;99.90
76203;DHT22;64985;46.364;17.008;2024-01-30T03:14:39;-4.60;99.90
76203;DHT22;64985;46.364;17.008;2024-01-30T03:17:41;-4.70;99.90
76203;DHT22;64985;46.364;17.008;2024-01-30T03:20:44;-4.70;99.90
76203;DHT22;64985;46.364;17.008;2024-01-30T03:23:46;-4.70;99.90
76203;DHT22;64985;46.364;17.008;2024-01-30T03:26:49;-4.70;99.90
76203;DHT22;64985;46.364;17.008;2024-01-30T03:29:51;-4.70;99.90
76203;DHT22;64985;46.364;17.008;2024-01-30T03:32:54;-4.70;99.90
76203;DHT22;64985;46.364;17.008;2024-01-30T03:35:56;-4.70;99.90
76203;DHT22;64985;46.364;17.008;2024-01-30T03:38:58;-4.80;99.90
76203;DHT22;64985;46.364;17.008;2024-01-30T03:42:01;-4.80;99.90
76203;DHT22;64985;46.364;17.008;2024-01-30T03:45:03;-4.80;99.90
76203;DHT22;64985;46.364;17.008;2024-01-30T03:48:06;-4.90;99.90
76203;DHT22;64985;46.364;17.008;2024-01-30T03:51:09;-4.90;99.90
76203;DHT22;64985;46.364;17.008;2024-01-30T03:54:16;-4.90;99.90
76203;DHT22;64985;46.364;17.008;2024-01-30T03:57:18;-4.90;99.90
76203;DHT22;64985;46.364;17.008;2024-01-30T04:00:21;-4.90;99.90
76203;DHT22;64985;46.364;17.008;2024-01-30T04:03:23;-4.90;99.90
76203;DHT22;64985;46.364;17.008;2024-01-30T04:06:26;-4.90;99.90
76203;DHT22;64985;46.364;17.008;2024-01-30T04:09:28;-4.90;99.90
76203;DHT22;64985;46.364;17.008;2024-01-30T04:12:31;-4.90;99.90
76203;DHT22;64985;46.364;17.008;2024-01-30T04:15:33;-4.90;99.90
76203;DHT22;64985;46.364;17.008;2024-01-30T04:18:35;-5.00;99.90
76203;DHT22;64985;46.364;17.008;2024-01-30T04:21:38;-5.00;99.90
76203;DHT22;64985;46.364;17.008;2024-01-30T04:24:40;-5.00;99.90
76203;DHT22;64985;46.364;17.008;2024-01-30T04:27:42;-5.00;99.90
76203;DHT22;64985;46.364;17.008;2024-01-30T04:30:45;-5.00;99.90
76203;DHT22;64985;46.364;17.008;2024-01-30T04:33:47;-5.00;99.90
76203;DHT22;64985;46.364;17.008;2024-01-30T04:36:50;-5.00;99.90
76203;DHT22;64985;46.364;17.008;2024-01-30T04:39:52;-5.00;99.90
76203;DHT22;64985;46.364;17.008;2024-01-30T04:42:54;-5.00;99.90
76203;DHT22;64985;46.364;17.008;2024-01-30T04:45:57;-5.00;99.90
76203;DHT22;64985;46.364;17.008;2024-01-30T04:48:59;-5.00;99.90
76203;DHT22;64985;46.364;17.008;2024-01-30T04:52:02;-5.10;99.90
76203;DHT22;64985;46.364;17.008;2024-01-30T04:55:04;-5.10;99.90
76203;DHT22;64985;46.364;17.008;2024-01-30T04:58:07;-5.00;99.90
76203;DHT22;64985;46.364;17.008;2024-01-30T05:01:10;-5.10;99.90
76203;DHT22;64985;46.364;17.008;2024-01-30T05:04:16;-5.20;99.90
76203;DHT22;64985;46.364;17.008;2024-01-30T05:07:19;-5.20;99.90
76203;DHT22;64985;46.364;17.008;2024-01-30T05:10:21;-5.20;99.90
76203;DHT22;64985;46.364;17.008;2024-01-30T05:13:23;-5.20;99.90
76203;DHT22;64985;46.364;17.008;2024-01-30T05:16:26;-5.30;99.90
76203;DHT22;64985;46.364;17.008;2024-01-30T05:19:28;-5.20;99.90
76203;DHT22;64985;46.364;17.008;2024-01-30T05:22:31;-5.20;99.90
76203;DHT22;64985;46.364;17.008;2024-01-30T05:25:33;-5.20;99.90
76203;DHT22;64985;46.364;17.008;2024-01-30T05:28:35;-5.20;99.90
76203;DHT22;64985;46.364;17.008;2024-01-30T05:31:38;-5.30;99.90
76203;DHT22;64985;46.364;17.008;2024-01-30T05:34:40;-5.30;99.90
76203;DHT22;64985;46.364;17.008;2024-01-30T05:37:43;-5.20;99.90
76203;DHT22;64985;46.364;17.008;2024-01-30T05:40:45;-5.30;99.90
76203;DHT22;64985;46.364;17.008;2024-01-30T05:43:48;-5.30;99.90
76203;DHT22;64985;46.364;17.008;2024-01-30T05:46:50;-5.30;99.90
76203;DHT22;64985;46.364;17.008;2024-01-30T05:49:52;-5.40;99.90
76203;DHT22;64985;46.364;17.008;2024-01-30T05:52:55;-5.40;99.90
76203;DHT22;64985;46.364;17.008;2024-01-30T05:55:57;-5.30;99.90
76203;DHT22;64985;46.364;17.008;2024-01-30T05:58:59;-5.30;99.90
76203;DHT22;64985;46.364;17.008;2024-01-30T06:02:01;-5.20;99.90
76203;DHT22;64985;46.364;17.008;2024-01-30T06:05:04;-5.20;99.90
76203;DHT22;64985;46.364;17.008;2024-01-30T06:08:06;-5.10;99.90
76203;DHT22;64985;46.364;17.008;2024-01-30T06:11:12;-5.10;99.90
76203;DHT22;64985;46.364;17.008;2024-01-30T06:14:14;-5.00;99.90
76203;DHT22;64985;46.364;17.008;2024-01-30T06:17:16;-5.00;99.90
76203;DHT22;64985;46.364;17.008;2024-01-30T06:20:19;-4.90;99.90
76203;DHT22;64985;46.364;17.008;2024-01-30T06:23:22;-4.80;99.90
76203;DHT22;64985;46.364;17.008;2024-01-30T06:26:24;-4.80;99.90
76203;DHT22;64985;46.364;17.008;2024-01-30T06:29:26;-4.80;99.90
76203;DHT22;64985;46.364;17.008;2024-01-30T06:32:29;-4.80;99.90
76203;DHT22;64985;46.364;17.008;2024-01-30T06:35:36;-4.80;99.90
76203;DHT22;64985;46.364;17.008;2024-01-30T06:38:45;-4.80;99.90
76203;DHT22;64985;46.364;17.008;2024-01-30T06:41:48;-4.70;99.90
76203;DHT22;64985;46.364;17.008;2024-01-30T06:44:50;-4.70;99.90
76203;DHT22;64985;46.364;17.008;2024-01-30T06:47:52;-4.70;99.90
76203;DHT22;64985;46.364;17.008;2024-01-30T06:50:54;-4.60;99.90
76203;DHT22;64985;46.364;17.008;2024-01-30T06:53:57;-4.50;99.90
76203;DHT22;64985;46.364;17.008;2024-01-30T06:57:00;-4.40;99.90
76203;DHT22;64985;46.364;17.008;2024-01-30T07:00:02;-4.30;99.90
76203;DHT22;64985;46.364;17.008;2024-01-30T07:03:05;-4.20;99.90
76203;DHT22;64985;46.364;17.008;2024-01-30T07:06:08;-4.10;99.90
76203;DHT22;64985;46.364;17.008;2024-01-30T07:09:12;-3.90;99.90
76203;DHT22;64985;46.364;17.008;2024-01-30T07:12:16;-3.60;99.90
76203;DHT22;64985;46.364;17.008;2024-01-30T07:15:18;-2.90;99.90
76203;DHT22;64985;46.364;17.008;2024-01-30T07:18:22;-2.30;99.90
76203;DHT22;64985;46.364;17.008;2024-01-30T07:21:24;-1.70;99.90
76203;DHT22;64985;46.364;17.008;2024-01-30T07:24:30;-1.30;99.90
76203;DHT22;64985;46.364;17.008;2024-01-30T07:27:32;-1.20;99.90
76203;DHT22;64985;46.364;17.008;2024-01-30T07:30:35;-1.10;99.90
76203;DHT22;64985;46.364;17.008;2024-01-30T07:33:37;-1.00;99.90
76203;DHT22;64985;46.364;17.008;2024-01-30T07:36:39;-0.90;99.90
76203;DHT22;64985;46.364;17.008;2024-01-30T07:39:42;-0.70;99.90
76203;DHT22;64985;46.364;17.008;2024-01-30T07:42:44;-0.60;99.90
76203;DHT22;64985;46.364;17.008;2024-01-30T07:45:46;-0.50;99.90
76203;DHT22;64985;46.364;17.008;2024-01-30T07:48:49;-0.20;99.90
76203;DHT22;64985;46.364;17.008;2024-01-30T07:51:55;-0.10;99.90
76203;DHT22;64985;46.364;17.008;2024-01-30T07:54:58;0.10;99.90
76203;DHT22;64985;46.364;17.008;2024-01-30T07:58:00;0.40;99.90
76203;DHT22;64985;46.364;17.008;2024-01-30T08:01:02;0.70;99.90
76203;DHT22;64985;46.364;17.008;2024-01-30T08:04:05;1.00;99.90
76203;DHT22;64985;46.364;17.008;2024-01-30T08:07:07;1.20;99.90
76203;DHT22;64985;46.364;17.008;2024-01-30T08:10:12;1.30;99.90
76203;DHT22;64985;46.364;17.008;2024-01-30T08:13:15;1.60;99.90
76203;DHT22;64985;46.364;17.008;2024-01-30T08:16:17;1.80;99.90
76203;DHT22;64985;46.364;17.008;2024-01-30T08:19:20;2.10;99.90
76203;DHT22;64985;46.364;17.008;2024-01-30T08:22:22;2.60;99.90
76203;DHT22;64985;46.364;17.008;2024-01-30T08:25:24;3.20;99.90
76203;DHT22;64985;46.364;17.008;2024-01-30T08:28:27;3.20;99.90
76203;DHT22;64985;46.364;17.008;2024-01-30T08:31:29;3.70;99.90
76203;DHT22;64985;46.364;17.008;2024-01-30T08:34:32;3.80;99.90
76203;DHT22;64985;46.364;17.008;2024-01-30T08:37:34;4.00;99.90
76203;DHT22;64985;46.364;17.008;2024-01-30T08:40:38;4.20;99.90
76203;DHT22;64985;46.364;17.008;2024-01-30T08:43:41;4.20;99.90
76203;DHT22;64985;46.364;17.008;2024-01-30T08:46:46;4.50;99.90
76203;DHT22;64985;46.364;17.008;2024-01-30T08:49:48;4.00;99.90
76203;DHT22;64985;46.364;17.008;2024-01-30T08:52:51;4.20;99.90
76203;DHT22;64985;46.364;17.008;2024-01-30T08:55:53;4.50;99.90
76203;DHT22;64985;46.364;17.008;2024-01-30T08:58:56;4.20;99.90
76203;DHT22;64985;46.364;17.008;2024-01-30T09:01:58;4.20;99.90
76203;DHT22;64985;46.364;17.008;2024-01-30T09:05:13;4.20;99.90
76203;DHT22;64985;46.364;17.008;2024-01-30T09:08:15;4.40;99.90
76203;DHT22;64985;46.364;17.008;2024-01-30T09:11:18;5.30;99.90
76203;DHT22;64985;46.364;17.008;2024-01-30T09:14:20;5.80;99.90
76203;DHT22;64985;46.364;17.008;2024-01-30T09:17:23;6.10;99.90
76203;DHT22;64985;46.364;17.008;2024-01-30T09:20:25;5.70;99.90
76203;DHT22;64985;46.364;17.008;2024-01-30T09:23:28;5.50;99.90
76203;DHT22;64985;46.364;17.008;2024-01-30T09:26:30;4.90;99.90
76203;DHT22;64985;46.364;17.008;2024-01-30T09:29:32;4.50;99.90
76203;DHT22;64985;46.364;17.008;2024-01-30T09:32:36;5.30;99.90
76203;DHT22;64985;46.364;17.008;2024-01-30T09:35:38;5.10;99.90
76203;DHT22;64985;46.364;17.008;2024-01-30T09:38:41;4.80;99.90
76203;DHT22;64985;46.364;17.008;2024-01-30T09:45:14;5.30;99.90
76203;DHT22;64985;46.364;17.008;2024-01-30T09:48:16;5.60;99.90
76203;DHT22;64985;46.364;17.008;2024-01-30T09:51:19;5.60;99.90
76203;DHT22;64985;46.364;17.008;2024-01-30T09:54:22;5.40;99.90
76203;DHT22;64985;46.364;17.008;2024-01-30T09:57:25;5.50;99.90
76203;DHT22;64985;46.364;17.008;2024-01-30T10:00:28;5.60;99.90
76203;DHT22;64985;46.364;17.008;2024-01-30T10:03:30;5.70;99.90
76203;DHT22;64985;46.364;17.008;2024-01-30T10:06:34;5.50;99.90
76203;DHT22;64985;46.364;17.008;2024-01-30T10:09:37;5.60;99.90
76203;DHT22;64985;46.364;17.008;2024-01-30T10:12:40;5.70;99.90
76203;DHT22;64985;46.364;17.008;2024-01-30T10:15:42;5.50;98.40
76203;DHT22;64985;46.364;17.008;2024-01-30T10:18:45;5.80;98.60
76203;DHT22;64985;46.364;17.008;2024-01-30T10:21:47;6.00;97.00
76203;DHT22;64985;46.364;17.008;2024-01-30T10:24:50;6.00;97.00
76203;DHT22;64985;46.364;17.008;2024-01-30T10:27:53;6.00;96.70
76203;DHT22;64985;46.364;17.008;2024-01-30T10:31:02;6.10;93.70
76203;DHT22;64985;46.364;17.008;2024-01-30T10:34:08;6.50;93.00
76203;DHT22;64985;46.364;17.008;2024-01-30T10:37:25;7.00;91.50
76203;DHT22;64985;46.364;17.008;2024-01-30T10:40:28;6.50;90.20
76203;DHT22;64985;46.364;17.008;2024-01-30T10:43:41;6.30;87.80
76203;DHT22;64985;46.364;17.008;2024-01-30T10:46:47;6.10;89.40
76203;DHT22;64985;46.364;17.008;2024-01-30T10:49:52;6.40;88.50
76203;DHT22;64985;46.364;17.008;2024-01-30T10:52:56;7.10;83.60
76203;DHT22;64985;46.364;17.008;2024-01-30T10:55:59;6.80;82.60
76203;DHT22;64985;46.364;17.008;2024-01-30T10:59:03;7.20;79.20
76203;DHT22;64985;46.364;17.008;2024-01-30T11:02:06;7.20;77.70
76203;DHT22;64985;46.364;17.008;2024-01-30T11:05:09;7.60;75.50
76203;DHT22;64985;46.364;17.008;2024-01-30T11:08:13;7.20;72.00
76203;DHT22;64985;46.364;17.008;2024-01-30T11:11:16;7.40;73.20
76203;DHT22;64985;46.364;17.008;2024-01-30T11:14:26;7.30;73.90
76203;DHT22;64985;46.364;17.008;2024-01-30T11:17:29;7.80;71.60
76203;DHT22;64985;46.364;17.008;2024-01-30T11:20:46;7.60;72.60
76203;DHT22;64985;46.364;17.008;2024-01-30T11:23:49;7.50;67.80
76203;DHT22;64985;46.364;17.008;2024-01-30T11:27:03;8.20;67.90
76203;DHT22;64985;46.364;17.008;2024-01-30T11:30:10;7.90;67.10
76203;DHT22;64985;46.364;17.008;2024-01-30T11:33:13;7.90;66.00
76203;DHT22;64985;46.364;17.008;2024-01-30T11:36:17;7.60;66.90
76203;DHT22;64985;46.364;17.008;2024-01-30T11:39:20;7.80;69.30
76203;DHT22;64985;46.364;17.008;2024-01-30T11:42:24;7.60;64.90
76203;DHT22;64985;46.364;17.008;2024-01-30T11:45:29;7.60;66.50
76203;DHT22;64985;46.364;17.008;2024-01-30T11:48:31;8.20;63.60
76203;DHT22;64985;46.364;17.008;2024-01-30T11:51:34;8.10;63.90
76203;DHT22;64985;46.364;17.008;2024-01-30T11:54:40;7.90;64.30
76203;DHT22;64985;46.364;17.008;2024-01-30T11:57:42;7.80;61.50
76203;DHT22;64985;46.364;17.008;2024-01-30T12:00:56;7.60;63.90
76203;DHT22;64985;46.364;17.008;2024-01-30T12:04:00;8.00;64.20
76203;DHT22;64985;46.364;17.008;2024-01-30T12:07:02;8.20;61.70
76203;DHT22;64985;46.364;17.008;2024-01-30T12:10:06;8.50;60.40
76203;DHT22;64985;46.364;17.008;2024-01-30T12:13:12;8.20;60.60
76203;DHT22;64985;46.364;17.008;2024-01-30T12:16:15;8.80;61.60
76203;DHT22;64985;46.364;17.008;2024-01-30T12:19:22;8.30;56.80
76203;DHT22;64985;46.364;17.008;2024-01-30T12:22:25;8.60;57.70
76203;DHT22;64985;46.364;17.008;2024-01-30T12:25:27;8.20;56.90
76203;DHT22;64985;46.364;17.008;2024-01-30T12:28:30;8.60;56.70
76203;DHT22;64985;46.364;17.008;2024-01-30T12:31:32;8.60;55.20
76203;DHT22;64985;46.364;17.008;2024-01-30T12:34:41;9.00;53.50
76203;DHT22;64985;46.364;17.008;2024-01-30T12:37:58;9.30;52.10
76203;DHT22;64985;46.364;17.008;2024-01-30T12:41:00;9.20;53.80
76203;DHT22;64985;46.364;17.008;2024-01-30T12:44:02;9.60;50.90
76203;DHT22;64985;46.364;17.008;2024-01-30T12:47:05;8.90;51.30
76203;DHT22;64985;46.364;17.008;2024-01-30T12:50:07;8.90;54.00
76203;DHT22;64985;46.364;17.008;2024-01-30T12:53:10;9.20;52.20
76203;DHT22;64985;46.364;17.008;2024-01-30T12:56:15;9.20;55.10
76203;DHT22;64985;46.364;17.008;2024-01-30T12:59:17;9.90;54.60
76203;DHT22;64985;46.364;17.008;2024-01-30T13:02:20;9.60;49.90
76203;DHT22;64985;46.364;17.008;2024-01-30T13:05:22;9.20;51.20
76203;DHT22;64985;46.364;17.008;2024-01-30T13:08:24;9.10;50.80
76203;DHT22;64985;46.364;17.008;2024-01-30T13:11:26;9.20;49.80
76203;DHT22;64985;46.364;17.008;2024-01-30T13:14:29;9.30;50.20
76203;DHT22;64985;46.364;17.008;2024-01-30T13:17:32;9.10;50.40
76203;DHT22;64985;46.364;17.008;2024-01-30T13:20:35;8.70;52.70
76203;DHT22;64985;46.364;17.008;2024-01-30T13:23:37;8.80;52.50
76203;DHT22;64985;46.364;17.008;2024-01-30T13:26:42;9.20;50.90
76203;DHT22;64985;46.364;17.008;2024-01-30T13:29:44;8.90;51.20
76203;DHT22;64985;46.364;17.008;2024-01-30T13:32:47;8.60;51.00
76203;DHT22;64985;46.364;17.008;2024-01-30T13:35:49;9.00;49.40
76203;DHT22;64985;46.364;17.008;2024-01-30T13:38:51;8.90;49.50
76203;DHT22;64985;46.364;17.008;2024-01-30T13:41:54;9.40;49.60
76203;DHT22;64985;46.364;17.008;2024-01-30T13:44:56;9.80;48.10
76203;DHT22;64985;46.364;17.008;2024-01-30T13:47:59;9.20;46.10
76203;DHT22;64985;46.364;17.008;2024-01-30T13:51:02;9.00;46.80
76203;DHT22;64985;46.364;17.008;2024-01-30T13:54:04;8.60;48.70
76203;DHT22;64985;46.364;17.008;2024-01-30T13:57:06;9.00;48.80
76203;DHT22;64985;46.364;17.008;2024-01-30T14:00:11;8.90;47.90
76203;DHT22;64985;46.364;17.008;2024-01-30T14:03:14;8.80;48.30
76203;DHT22;64985;46.364;17.008;2024-01-30T14:06:16;8.70;48.60
76203;DHT22;64985;46.364;17.008;2024-01-30T14:09:18;8.80;47.40
76203;DHT22;64985;46.364;17.008;2024-01-30T14:12:20;9.10;48.70
76203;DHT22;64985;46.364;17.008;2024-01-30T14:15:23;8.70;47.40
76203;DHT22;64985;46.364;17.008;2024-01-30T14:18:30;8.70;48.60
76203;DHT22;64985;46.364;17.008;2024-01-30T14:21:32;8.70;49.30
76203;DHT22;64985;46.364;17.008;2024-01-30T14:24:34;8.50;48.70
76203;DHT22;64985;46.364;17.008;2024-01-30T14:27:37;8.60;48.10
76203;DHT22;64985;46.364;17.008;2024-01-30T14:30:39;8.90;49.30
76203;DHT22;64985;46.364;17.008;2024-01-30T14:33:41;9.40;46.40
76203;DHT22;64985;46.364;17.008;2024-01-30T14:36:44;9.30;45.90
76203;DHT22;64985;46.364;17.008;2024-01-30T14:39:47;9.00;45.40
76203;DHT22;64985;46.364;17.008;2024-01-30T14:42:52;9.00;44.10
76203;DHT22;64985;46.364;17.008;2024-01-30T14:45:55;8.70;44.90
76203;DHT22;64985;46.364;17.008;2024-01-30T14:48:58;8.40;47.40
76203;DHT22;64985;46.364;17.008;2024-01-30T14:52:01;8.40;46.50
76203;DHT22;64985;46.364;17.008;2024-01-30T14:55:06;8.80;46.20
76203;DHT22;64985;46.364;17.008;2024-01-30T14:58:09;8.80;46.20
76203;DHT22;64985;46.364;17.008;2024-01-30T15:01:11;8.50;46.80
76203;DHT22;64985;46.364;17.008;2024-01-30T15:04:14;8.50;47.70
76203;DHT22;64985;46.364;17.008;2024-01-30T15:07:16;8.40;47.80
76203;DHT22;64985;46.364;17.008;2024-01-30T15:10:33;8.40;47.20
76203;DHT22;64985;46.364;17.008;2024-01-30T15:13:36;8.00;48.00
76203;DHT22;64985;46.364;17.008;2024-01-30T15:16:38;7.90;48.00
76203;DHT22;64985;46.364;17.008;2024-01-30T15:19:41;7.50;48.50
76203;DHT22;64985;46.364;17.008;2024-01-30T15:22:43;7.10;50.00
76203;DHT22;64985;46.364;17.008;2024-01-30T15:25:47;6.70;51.40
76203;DHT22;64985;46.364;17.008;2024-01-30T15:28:50;6.10;52.70
76203;DHT22;64985;46.364;17.008;2024-01-30T15:31:52;5.70;55.60
76203;DHT22;64985;46.364;17.008;2024-01-30T15:34:54;5.40;57.60
76203;DHT22;64985;46.364;17.008;2024-01-30T15:37:59;5.20;59.60
76203;DHT22;64985;46.364;17.008;2024-01-30T15:41:01;4.70;62.80
76203;DHT22;64985;46.364;17.008;2024-01-30T15:44:03;4.40;68.90
76203;DHT22;64985;46.364;17.008;2024-01-30T15:47:06;4.10;72.60
76203;DHT22;64985;46.364;17.008;2024-01-30T15:50:11;3.90;75.90
76203;DHT22;64985;46.364;17.008;2024-01-30T15:53:13;3.50;80.60
76203;DHT22;64985;46.364;17.008;2024-01-30T15:56:15;3.20;86.30
76203;DHT22;64985;46.364;17.008;2024-01-30T15:59:18;3.00;91.00
76203;DHT22;64985;46.364;17.008;2024-01-30T16:02:20;2.80;92.60
76203;DHT22;64985;46.364;17.008;2024-01-30T16:05:23;2.60;94.20
76203;DHT22;64985;46.364;17.008;2024-01-30T16:08:25;2.30;95.80
76203;DHT22;64985;46.364;17.008;2024-01-30T16:11:27;2.00;97.70
76203;DHT22;64985;46.364;17.008;2024-01-30T16:14:30;1.60;99.10
76203;DHT22;64985;46.364;17.008;2024-01-30T16:17:32;1.30;99.90
76203;DHT22;64985;46.364;17.008;2024-01-30T16:20:38;1.20;99.90
76203;DHT22;64985;46.364;17.008;2024-01-30T16:23:40;1.00;99.90
76203;DHT22;64985;46.364;17.008;2024-01-30T16:26:42;0.80;99.90
76203;DHT22;64985;46.364;17.008;2024-01-30T16:29:45;0.50;99.90
76203;DHT22;64985;46.364;17.008;2024-01-30T16:32:47;0.50;99.90
76203;DHT22;64985;46.364;17.008;2024-01-30T16:35:49;0.40;99.90
76203;DHT22;64985;46.364;17.008;2024-01-30T16:38:55;0.40;99.90
76203;DHT22;64985;46.364;17.008;2024-01-30T16:41:59;0.30;99.90
76203;DHT22;64985;46.364;17.008;2024-01-30T16:45:02;0.30;99.90
76203;DHT22;64985;46.364;17.008;2024-01-30T16:48:04;0.10;99.90
76203;DHT22;64985;46.364;17.008;2024-01-30T16:51:07;-0.20;99.90
76203;DHT22;64985;46.364;17.008;2024-01-30T16:54:09;-0.40;99.90
76203;DHT22;64985;46.364;17.008;2024-01-30T16:57:11;-0.50;99.90
76203;DHT22;64985;46.364;17.008;2024-01-30T17:00:14;-0.50;99.90
76203;DHT22;64985;46.364;17.008;2024-01-30T17:03:17;-0.60;99.90
76203;DHT22;64985;46.364;17.008;2024-01-30T17:06:19;-0.70;99.90
76203;DHT22;64985;46.364;17.008;2024-01-30T17:09:21;-0.70;99.90
76203;DHT22;64985;46.364;17.008;2024-01-30T17:12:24;-0.80;99.90
76203;DHT22;64985;46.364;17.008;2024-01-30T17:15:26;-0.90;99.90
76203;DHT22;64985;46.364;17.008;2024-01-30T17:18:30;-1.00;99.90
76203;DHT22;64985;46.364;17.008;2024-01-30T17:21:32;-1.10;99.90
76203;DHT22;64985;46.364;17.008;2024-01-30T17:24:36;-1.10;99.90
76203;DHT22;64985;46.364;17.008;2024-01-30T17:27:51;-1.20;99.90
76203;DHT22;64985;46.364;17.008;2024-01-30T17:30:53;-1.40;99.90
76203;DHT22;64985;46.364;17.008;2024-01-30T17:33:56;-1.50;99.90
76203;DHT22;64985;46.364;17.008;2024-01-30T17:36:58;-1.60;99.90
76203;DHT22;64985;46.364;17.008;2024-01-30T17:40:01;-1.60;99.90
76203;DHT22;64985;46.364;17.008;2024-01-30T17:43:04;-1.60;99.90
76203;DHT22;64985;46.364;17.008;2024-01-30T17:46:06;-1.70;99.90
76203;DHT22;64985;46.364;17.008;2024-01-30T17:49:09;-1.80;99.90
76203;DHT22;64985;46.364;17.008;2024-01-30T17:52:11;-1.80;99.90
76203;DHT22;64985;46.364;17.008;2024-01-30T17:55:13;-1.90;99.90
76203;DHT22;64985;46.364;17.008;2024-01-30T17:58:16;-1.90;99.90
76203;DHT22;64985;46.364;17.008;2024-01-30T18:01:18;-2.00;99.90
76203;DHT22;64985;46.364;17.008;2024-01-30T18:04:21;-2.10;99.90
76203;DHT22;64985;46.364;17.008;2024-01-30T18:07:24;-2.10;99.90
76203;DHT22;64985;46.364;17.008;2024-01-30T18:10:26;-2.10;99.90
76203;DHT22;64985;46.364;17.008;2024-01-30T18:13:29;-2.10;99.90
76203;DHT22;64985;46.364;17.008;2024-01-30T18:16:31;-2.20;99.90
76203;DHT22;64985;46.364;17.008;2024-01-30T18:19:34;-2.20;99.90
76203;DHT22;64985;46.364;17.008;2024-01-30T18:22:37;-2.30;99.90
76203;DHT22;64985;46.364;17.008;2024-01-30T18:25:43;-2.20;99.90
76203;DHT22;64985;46.364;17.008;2024-01-30T18:28:46;-2.30;99.90
76203;DHT22;64985;46.364;17.008;2024-01-30T18:31:48;-2.30;99.90
76203;DHT22;64985;46.364;17.008;2024-01-30T18:34:50;-2.30;99.90
76203;DHT22;64985;46.364;17.008;2024-01-30T18:37:53;-2.30;99.90
76203;DHT22;64985;46.364;17.008;2024-01-30T18:40:55;-2.30;99.90
76203;DHT22;64985;46.364;17.008;2024-01-30T18:43:57;-2.30;99.90
76203;DHT22;64985;46.364;17.008;2024-01-30T18:47:00;-2.40;99.90
76203;DHT22;64985;46.364;17.008;2024-01-30T18:50:03;-2.40;99.90
76203;DHT22;64985;46.364;17.008;2024-01-30T18:53:06;-2.40;99.90
76203;DHT22;64985;46.364;17.008;2024-01-30T18:56:11;-2.50;99.90
76203;DHT22;64985;46.364;17.008;2024-01-30T18:59:14;-2.40;99.90
76203;DHT22;64985;46.364;17.008;2024-01-30T19:02:21;-2.50;99.90
76203;DHT22;64985;46.364;17.008;2024-01-30T19:05:24;-2.40;99.90
76203;DHT22;64985;46.364;17.008;2024-01-30T19:08:27;-2.50;99.90
76203;DHT22;64985;46.364;17.008;2024-01-30T19:11:29;-2.50;99.90